Time;durP1;ratioP1;P1;durP2;ratioP2;P2;SDS_P1;SDS_P2;PMS_P1;PMS_P2;Temp;Humidity;BMP_temperature;BMP_pressure;BME280_temperature;BME280_humidity;BME280_pressure;Samples;Min_cycle;Max_cycle;Signal;HPM_P1;HPM_P2
2021/05/15 00:01:29;;;;;;;22.95;14.70;;;10.30;94.10;;;;;;6214154;23;20001;-68
2021/05/15 00:03:56;;;;;;;24.83;15.35;;;10.30;94.10;;;;;;6212788;23;20035;-69
2021/05/15 00:06:22;;;;;;;24.00;15.90;;;10.20;94.20;;;;;;6215556;23;20000;-68
2021/05/15 00:08:48;;;;;;;22.13;15.85;;;10.20;94.20;;;;;;6215119;23;20063;-68
2021/05/15 00:11:13;;;;;;;21.58;16.20;;;10.20;94.30;;;;;;6214553;23;20418;-69
2021/05/15 00:13:39;;;;;;;20.55;15.20;;;10.20;94.40;;;;;;6213587;23;20377;-68
2021/05/15 00:16:05;;;;;;;21.48;15.63;;;10.20;94.40;;;;;;6215608;23;19996;-67
2021/05/15 00:18:30;;;;;;;22.25;15.50;;;10.20;94.50;;;;;;6213092;23;20008;-69
2021/05/15 00:20:56;;;;;;;18.58;14.73;;;10.30;94.40;;;;;;6214992;23;20055;-68
2021/05/15 00:23:21;;;;;;;20.50;15.18;;;10.30;94.40;;;;;;6213453;23;20016;-68
2021/05/15 00:25:47;;;;;;;22.42;14.63;;;10.40;94.30;;;;;;6214355;23;20004;-67
2021/05/15 00:28:12;;;;;;;19.90;15.75;;;10.50;94.20;;;;;;6215164;23;20079;-67
2021/05/15 00:30:38;;;;;;;26.75;15.55;;;10.50;94.00;;;;;;6215280;23;20005;-68
2021/05/15 00:33:03;;;;;;;21.48;16.35;;;10.60;93.90;;;;;;6214008;23;20361;-68
2021/05/15 00:35:29;;;;;;;19.38;16.50;;;10.60;93.70;;;;;;6215090;23;19996;-68
2021/05/15 00:37:54;;;;;;;20.27;15.10;;;10.60;93.50;;;;;;6214335;23;20015;-67
2021/05/15 00:40:20;;;;;;;24.08;16.02;;;10.60;93.50;;;;;;6214118;23;19997;-67
2021/05/15 00:42:48;;;;;;;21.63;16.05;;;10.70;93.50;;;;;;6214510;23;20017;-68
2021/05/15 00:45:15;;;;;;;21.58;16.63;;;10.70;93.50;;;;;;6213808;23;20000;-68
2021/05/15 00:47:41;;;;;;;22.20;16.63;;;10.80;93.40;;;;;;6213021;23;20051;-68
2021/05/15 00:50:07;;;;;;;18.45;15.93;;;10.80;93.20;;;;;;6214913;23;20001;-68
2021/05/15 00:52:35;;;;;;;23.25;16.10;;;10.80;93.20;;;;;;6213703;23;20040;-69
2021/05/15 00:55:06;;;;;;;21.98;16.17;;;10.90;93.30;;;;;;6214528;23;20024;-68
2021/05/15 00:57:32;;;;;;;22.23;15.65;;;10.90;93.10;;;;;;6214645;23;20456;-68
2021/05/15 00:59:57;;;;;;;25.02;16.33;;;10.90;93.10;;;;;;6214549;23;19993;-69
2021/05/15 01:02:23;;;;;;;20.92;16.02;;;10.90;93.00;;;;;;6214715;23;20043;-68
2021/05/15 01:04:49;;;;;;;21.77;15.65;;;10.90;92.90;;;;;;6214423;23;20001;-68
2021/05/15 01:07:14;;;;;;;20.00;16.40;;;10.90;93.00;;;;;;6213715;23;20004;-68
2021/05/15 01:09:40;;;;;;;20.30;16.08;;;10.90;92.90;;;;;;6214217;23;20068;-68
2021/05/15 01:12:07;;;;;;;23.98;17.58;;;10.90;92.90;;;;;;6214522;23;20007;-68
2021/05/15 01:14:35;;;;;;;21.42;17.48;;;10.80;92.90;;;;;;6212144;23;20001;-67
2021/05/15 01:17:02;;;;;;;20.42;16.17;;;10.80;92.90;;;;;;6214675;23;20005;-67
2021/05/15 01:19:27;;;;;;;22.15;17.10;;;10.80;93.00;;;;;;6214607;23;20484;-67
2021/05/15 01:21:53;;;;;;;23.08;16.40;;;10.70;93.00;;;;;;6211723;23;20013;-66
2021/05/15 01:24:19;;;;;;;21.67;16.48;;;10.70;93.40;;;;;;6214307;23;20000;-66
2021/05/15 01:26:45;;;;;;;23.13;17.33;;;10.60;93.20;;;;;;6212608;23;20062;-66
2021/05/15 01:29:10;;;;;;;21.00;16.98;;;10.50;93.30;;;;;;6213156;23;20005;-68
2021/05/15 01:31:38;;;;;;;20.33;17.20;;;10.50;93.50;;;;;;6214768;23;20032;-67
2021/05/15 01:34:05;;;;;;;22.77;17.60;;;10.50;93.70;;;;;;6212615;23;20084;-68
2021/05/15 01:36:34;;;;;;;26.15;17.90;;;10.50;93.60;;;;;;6213580;23;20429;-67
2021/05/15 01:39:00;;;;;;;23.73;17.10;;;10.50;93.60;;;;;;6212466;23;20012;-68
2021/05/15 01:41:25;;;;;;;23.75;18.02;;;10.50;93.50;;;;;;6213639;23;20012;-67
2021/05/15 01:43:56;;;;;;;23.83;17.42;;;10.50;93.50;;;;;;6213939;23;20023;-67
2021/05/15 01:46:21;;;;;;;27.10;19.00;;;10.50;93.60;;;;;;6212829;23;20492;-68
2021/05/15 01:48:47;;;;;;;23.63;19.48;;;10.50;93.50;;;;;;6211738;23;20072;-67
2021/05/15 01:51:13;;;;;;;25.98;17.98;;;10.50;93.50;;;;;;6214354;23;20071;-67
2021/05/15 01:53:46;;;;;;;26.88;19.15;;;10.50;93.50;;;;;;6214263;23;20000;-68
2021/05/15 01:56:14;;;;;;;25.92;19.35;;;10.50;93.50;;;;;;6213660;23;20000;-67
2021/05/15 01:58:40;;;;;;;23.98;18.17;;;10.50;93.50;;;;;;6213804;23;20410;-68
2021/05/15 02:01:06;;;;;;;28.48;19.70;;;10.50;93.50;;;;;;6214025;23;20362;-67
2021/05/15 02:03:33;;;;;;;21.92;18.05;;;10.50;93.60;;;;;;6212756;23;20438;-67
2021/05/15 02:05:58;;;;;;;20.23;17.98;;;10.50;93.60;;;;;;6213716;23;20001;-68
2021/05/15 02:08:24;;;;;;;25.38;19.80;;;10.50;93.70;;;;;;6214076;23;20050;-67
2021/05/15 02:10:52;;;;;;;24.35;18.55;;;10.50;93.80;;;;;;6213140;23;20004;-67
2021/05/15 02:13:19;;;;;;;27.40;19.65;;;10.40;93.80;;;;;;6213938;23;20373;-68
2021/05/15 02:15:46;;;;;;;28.45;19.17;;;10.40;93.90;;;;;;6213855;23;20000;-68
2021/05/15 02:18:12;;;;;;;24.90;18.73;;;10.40;94.00;;;;;;6212681;23;20008;-68
2021/05/15 02:20:39;;;;;;;24.73;19.73;;;10.40;94.00;;;;;;6212499;23;19996;-68
2021/05/15 02:23:04;;;;;;;22.67;18.60;;;10.40;94.00;;;;;;6213595;23;20360;-67
2021/05/15 02:25:30;;;;;;;25.63;17.65;;;10.40;94.00;;;;;;6213304;23;20123;-68
2021/05/15 02:27:56;;;;;;;21.55;18.08;;;10.40;94.00;;;;;;6212190;23;20072;-68
2021/05/15 02:30:23;;;;;;;23.63;18.70;;;10.40;94.00;;;;;;6213965;23;20205;-67
2021/05/15 02:32:48;;;;;;;24.05;18.50;;;10.30;93.90;;;;;;6212962;23;20051;-68
2021/05/15 02:35:15;;;;;;;23.38;18.50;;;10.30;94.00;;;;;;6213510;23;20008;-69
2021/05/15 02:37:41;;;;;;;21.75;17.67;;;10.20;94.00;;;;;;6213108;23;20125;-68
2021/05/15 02:40:08;;;;;;;25.27;17.98;;;10.10;94.10;;;;;;6213902;23;20477;-68
2021/05/15 02:42:34;;;;;;;23.67;18.27;;;10.10;94.10;;;;;;6213096;23;20013;-68
2021/05/15 02:45:00;;;;;;;25.60;19.20;;;10.00;94.30;;;;;;6211394;23;20184;-67
2021/05/15 02:47:25;;;;;;;25.52;19.45;;;10.00;94.40;;;;;;6213868;23;20048;-67
2021/05/15 02:49:51;;;;;;;26.58;19.75;;;9.90;94.50;;;;;;6213584;23;20414;-67
2021/05/15 02:52:17;;;;;;;23.50;20.10;;;9.80;94.60;;;;;;6212680;23;20011;-69
2021/05/15 02:54:43;;;;;;;25.55;20.92;;;9.80;94.70;;;;;;6213330;23;20441;-68
2021/05/15 02:57:09;;;;;;;25.88;20.23;;;9.80;94.70;;;;;;6212017;23;20004;-68
2021/05/15 02:59:35;;;;;;;27.17;20.52;;;9.80;94.70;;;;;;6212663;23;20422;-68
2021/05/15 03:02:02;;;;;;;23.73;20.50;;;9.80;94.70;;;;;;6213559;23;20444;-68
2021/05/15 03:04:27;;;;;;;26.65;20.42;;;9.80;94.70;;;;;;6213692;23;20031;-68
2021/05/15 03:06:53;;;;;;;29.80;21.63;;;9.70;94.80;;;;;;6211116;23;20008;-67
2021/05/15 03:09:18;;;;;;;27.08;19.38;;;9.70;94.90;;;;;;6213661;23;20024;-67
2021/05/15 03:11:44;;;;;;;27.20;21.58;;;9.70;94.90;;;;;;6211909;23;20004;-68
2021/05/15 03:14:09;;;;;;;27.13;22.35;;;9.70;95.00;;;;;;6212773;23;20071;-68
2021/05/15 03:16:35;;;;;;;26.67;21.60;;;9.70;95.00;;;;;;6215368;23;19997;-68
2021/05/15 03:19:01;;;;;;;31.50;22.90;;;9.70;95.00;;;;;;6215601;23;20008;-68
2021/05/15 03:21:27;;;;;;;30.20;21.67;;;9.80;94.90;;;;;;6214967;23;20016;-68
2021/05/15 03:23:53;;;;;;;28.35;21.85;;;9.80;94.90;;;;;;6215401;23;20000;-67
2021/05/15 03:26:18;;;;;;;32.42;22.52;;;9.80;94.90;;;;;;6215406;23;20011;-68
2021/05/15 03:28:44;;;;;;;26.95;20.95;;;9.90;94.90;;;;;;6214565;23;20033;-67
2021/05/15 03:31:09;;;;;;;28.63;21.48;;;9.90;94.90;;;;;;6215541;23;20007;-68
2021/05/15 03:33:35;;;;;;;29.10;21.88;;;9.90;94.90;;;;;;6215530;23;20372;-68
2021/05/15 03:36:00;;;;;;;32.25;22.27;;;9.90;94.80;;;;;;6214692;23;20000;-69
2021/05/15 03:38:26;;;;;;;28.45;21.13;;;10.00;94.90;;;;;;6215594;23;20027;-69
2021/05/15 03:40:51;;;;;;;30.52;22.33;;;10.00;94.90;;;;;;6215139;23;20341;-69
2021/05/15 03:43:17;;;;;;;27.85;21.92;;;10.00;94.90;;;;;;6212869;23;20012;-69
2021/05/15 03:45:42;;;;;;;26.55;21.58;;;10.10;94.90;;;;;;6215384;23;20425;-68
2021/05/15 03:48:08;;;;;;;30.63;21.85;;;10.10;94.90;;;;;;6214522;23;20004;-69
2021/05/15 03:50:34;;;;;;;28.52;22.15;;;10.10;94.90;;;;;;6215326;23;20000;-68
2021/05/15 03:52:59;;;;;;;26.30;20.35;;;10.20;94.90;;;;;;6214929;23;19997;-68
2021/05/15 03:55:25;;;;;;;27.73;21.25;;;10.20;94.80;;;;;;6214738;23;20000;-69
2021/05/15 03:57:50;;;;;;;26.48;21.67;;;10.20;94.70;;;;;;6215085;23;20079;-69
2021/05/15 04:00:16;;;;;;;25.70;21.27;;;10.20;94.70;;;;;;6215573;23;20353;-68
2021/05/15 04:02:42;;;;;;;27.92;22.30;;;10.20;94.70;;;;;;6214144;23;20017;-68
2021/05/15 04:05:08;;;;;;;33.00;22.20;;;10.30;94.70;;;;;;6215275;23;20047;-69
2021/05/15 04:07:34;;;;;;;25.73;21.08;;;10.30;94.80;;;;;;6213355;23;20027;-68
2021/05/15 04:09:59;;;;;;;29.27;20.65;;;10.30;94.70;;;;;;6212621;23;20414;-69
2021/05/15 04:12:30;;;;;;;24.10;20.20;;;10.30;94.70;;;;;;6215277;23;20007;-68
2021/05/15 04:15:05;;;;;;;27.48;20.88;;;10.40;94.80;;;;;;6213557;23;20001;-68
2021/05/15 04:17:31;;;;;;;27.92;21.65;;;10.40;94.80;;;;;;6214404;23;20004;-68
2021/05/15 04:19:57;;;;;;;24.58;20.48;;;10.50;94.80;;;;;;6215299;23;20043;-69
2021/05/15 04:22:23;;;;;;;29.60;21.77;;;10.50;94.80;;;;;;6214982;23;20437;-68
2021/05/15 04:24:49;;;;;;;29.33;20.65;;;10.50;94.70;;;;;;6213958;23;20003;-68
2021/05/15 04:27:15;;;;;;;27.70;20.40;;;10.50;94.70;;;;;;6214616;23;20004;-68
2021/05/15 04:29:42;;;;;;;28.45;22.02;;;10.60;94.70;;;;;;6214731;23;20421;-68
2021/05/15 04:32:08;;;;;;;24.27;20.15;;;10.60;94.70;;;;;;6214278;23;20007;-68
2021/05/15 04:34:33;;;;;;;27.70;21.08;;;10.60;94.70;;;;;;6214786;23;20067;-68
2021/05/15 04:36:59;;;;;;;29.23;22.08;;;10.70;94.70;;;;;;6214835;23;20001;-68
2021/05/15 04:39:26;;;;;;;25.80;20.98;;;10.70;94.60;;;;;;6214553;23;20051;-69
2021/05/15 04:41:52;;;;;;;28.35;21.80;;;10.80;94.60;;;;;;6214740;23;20105;-68
2021/05/15 04:44:18;;;;;;;28.20;22.13;;;10.80;94.60;;;;;;6213744;23;20017;-68
2021/05/15 04:46:44;;;;;;;30.90;22.27;;;10.80;94.60;;;;;;6215005;23;20461;-68
2021/05/15 04:49:10;;;;;;;32.42;22.45;;;10.90;94.50;;;;;;6214747;23;20004;-69
2021/05/15 04:51:35;;;;;;;25.90;21.98;;;11.00;94.50;;;;;;6213764;23;20007;-69
2021/05/15 04:54:02;;;;;;;30.25;22.52;;;11.00;94.50;;;;;;6214686;23;20067;-68
2021/05/15 04:56:29;;;;;;;25.92;22.30;;;11.00;94.30;;;;;;6214856;23;20078;-68
2021/05/15 04:58:54;;;;;;;27.08;22.15;;;11.10;94.30;;;;;;6213714;23;20003;-69
2021/05/15 05:01:20;;;;;;;32.58;22.98;;;11.10;94.30;;;;;;6215071;23;20032;-69
2021/05/15 05:03:46;;;;;;;28.00;22.15;;;11.20;94.20;;;;;;6214516;23;20004;-68
2021/05/15 05:06:11;;;;;;;32.28;22.85;;;11.20;94.20;;;;;;6213678;23;20001;-67
2021/05/15 05:08:37;;;;;;;28.13;22.17;;;11.30;94.20;;;;;;6214662;23;20004;-68
2021/05/15 05:11:03;;;;;;;29.40;22.55;;;11.40;94.10;;;;;;6214378;23;20011;-67
2021/05/15 05:13:28;;;;;;;34.00;24.73;;;11.40;94.20;;;;;;6213991;23;20036;-68
2021/05/15 05:15:54;;;;;;;27.58;22.75;;;11.40;94.20;;;;;;6212939;23;20330;-67
2021/05/15 05:18:19;;;;;;;36.50;24.17;;;11.50;94.20;;;;;;6214256;23;20420;-68
2021/05/15 05:20:45;;;;;;;30.17;23.30;;;11.50;94.20;;;;;;6213465;23;20326;-68
2021/05/15 05:23:11;;;;;;;30.85;24.33;;;11.50;94.20;;;;;;6214277;23;20387;-68
2021/05/15 05:25:37;;;;;;;32.47;24.17;;;11.50;94.20;;;;;;6214633;23;20399;-67
2021/05/15 05:28:03;;;;;;;36.30;23.48;;;11.60;94.10;;;;;;6213155;23;20008;-68
2021/05/15 05:30:28;;;;;;;34.75;24.23;;;11.50;94.10;;;;;;6214914;23;20007;-68
2021/05/15 05:32:54;;;;;;;31.17;24.75;;;11.60;94.20;;;;;;6212762;23;20054;-67
2021/05/15 05:35:20;;;;;;;27.45;24.00;;;11.60;94.20;;;;;;6212026;23;20433;-68
2021/05/15 05:37:47;;;;;;;29.42;23.85;;;11.70;94.20;;;;;;6212330;23;19997;-68
2021/05/15 05:40:14;;;;;;;29.63;24.45;;;11.80;94.10;;;;;;6214137;23;20008;-67
2021/05/15 05:42:41;;;;;;;31.00;24.83;;;11.80;94.00;;;;;;6212989;23;20009;-68
2021/05/15 05:45:09;;;;;;;30.45;24.33;;;11.90;93.80;;;;;;6214281;23;20381;-68
2021/05/15 05:47:35;;;;;;;30.95;25.45;;;11.90;93.80;;;;;;6212011;23;20058;-79
2021/05/15 05:50:01;;;;;;;35.72;26.33;;;12.00;93.70;;;;;;6212854;23;20095;-68
2021/05/15 05:52:26;;;;;;;32.22;24.98;;;12.10;93.50;;;;;;6214317;23;20102;-68
2021/05/15 05:54:52;;;;;;;30.27;25.38;;;12.20;93.60;;;;;;6213229;23;20035;-69
2021/05/15 05:57:18;;;;;;;28.67;24.13;;;12.20;93.60;;;;;;6213776;23;20004;-67
2021/05/15 05:59:44;;;;;;;29.08;23.95;;;12.30;93.50;;;;;;6212346;23;20321;-68
2021/05/15 06:02:11;;;;;;;34.60;26.30;;;12.40;93.40;;;;;;6213678;23;20013;-68
2021/05/15 06:04:37;;;;;;;37.88;26.42;;;12.50;93.30;;;;;;6214025;23;20004;-68
2021/05/15 06:07:02;;;;;;;34.28;25.90;;;12.60;93.20;;;;;;6213794;23;20004;-67
2021/05/15 06:09:28;;;;;;;32.83;26.55;;;12.60;93.00;;;;;;6211662;23;20036;-68
2021/05/15 06:11:53;;;;;;;28.85;25.02;;;12.70;93.00;;;;;;6213894;23;20078;-68
2021/05/15 06:14:19;;;;;;;31.70;24.77;;;12.70;92.80;;;;;;6213729;23;20430;-68
2021/05/15 06:16:44;;;;;;;31.42;26.10;;;12.70;92.80;;;;;;6212944;23;20000;-68
2021/05/15 06:19:10;;;;;;;30.95;25.38;;;12.70;92.80;;;;;;6213998;23;20012;-68
2021/05/15 06:21:35;;;;;;;28.50;25.27;;;12.70;92.70;;;;;;6212256;23;20076;-67
2021/05/15 06:24:02;;;;;;;34.78;27.58;;;12.80;92.80;;;;;;6213047;23;20020;-68
2021/05/15 06:26:27;;;;;;;28.52;25.25;;;12.80;92.80;;;;;;6214678;23;20361;-67
2021/05/15 06:28:53;;;;;;;30.88;25.77;;;12.90;93.00;;;;;;6213407;23;20005;-68
2021/05/15 06:31:18;;;;;;;32.78;26.20;;;13.00;92.90;;;;;;6212685;23;20016;-68
2021/05/15 06:33:44;;;;;;;30.13;25.35;;;13.00;92.90;;;;;;6213729;23;20004;-68
2021/05/15 06:36:09;;;;;;;31.45;25.90;;;13.00;92.70;;;;;;6213774;23;20071;-67
2021/05/15 06:38:35;;;;;;;33.63;25.27;;;13.00;92.70;;;;;;6212729;23;20004;-67
2021/05/15 06:41:00;;;;;;;32.17;24.80;;;13.00;92.70;;;;;;6211758;23;20091;-67
2021/05/15 06:43:26;;;;;;;31.95;26.38;;;13.00;92.80;;;;;;6213700;23;20043;-67
2021/05/15 06:45:51;;;;;;;33.83;26.00;;;13.00;92.80;;;;;;6212634;23;20005;-69
2021/05/15 06:48:17;;;;;;;34.40;27.45;;;12.90;92.60;;;;;;6213546;23;20004;-68
2021/05/15 06:50:42;;;;;;;39.83;31.30;;;13.00;92.80;;;;;;6213655;23;20000;-67
2021/05/15 06:53:08;;;;;;;38.85;32.08;;;13.00;92.80;;;;;;6212665;23;20444;-67
2021/05/15 06:55:34;;;;;;;39.88;30.50;;;13.00;92.80;;;;;;6213368;23;20000;-67
2021/05/15 06:58:04;;;;;;;42.33;33.60;;;13.10;92.70;;;;;;6210985;23;20004;-68
2021/05/15 07:00:30;;;;;;;46.25;34.40;;;13.10;92.30;;;;;;6212069;23;20340;-68
2021/05/15 07:02:56;;;;;;;45.35;36.08;;;13.10;92.00;;;;;;6211825;23;20044;-68
2021/05/15 07:05:22;;;;;;;47.78;36.90;;;13.10;91.80;;;;;;6212871;23;20476;-68
2021/05/15 07:07:47;;;;;;;47.20;36.55;;;13.00;91.80;;;;;;6211878;23;20009;-67
2021/05/15 07:10:14;;;;;;;50.08;37.22;;;13.00;91.80;;;;;;6213775;23;19996;-68
2021/05/15 07:12:39;;;;;;;47.25;36.33;;;13.10;91.80;;;;;;6212600;23;20438;-68
2021/05/15 07:15:06;;;;;;;47.95;38.20;;;13.10;91.90;;;;;;6213598;23;20004;-68
2021/05/15 07:17:33;;;;;;;48.20;36.58;;;13.20;91.50;;;;;;6213197;23;20054;-67
2021/05/15 07:19:59;;;;;;;42.85;35.38;;;13.30;91.50;;;;;;6211016;23;20425;-68
2021/05/15 07:22:25;;;;;;;45.17;33.83;;;13.40;91.20;;;;;;6213663;23;20016;-67
2021/05/15 07:25:00;;;;;;;42.17;34.58;;;13.40;90.90;;;;;;6211709;23;20440;-67
2021/05/15 07:27:28;;;;;;;46.58;34.63;;;13.50;91.00;;;;;;6213001;23;20011;-68
2021/05/15 07:29:55;;;;;;;43.30;35.25;;;13.60;90.80;;;;;;6213163;23;19997;-68
2021/05/15 07:32:21;;;;;;;43.97;35.55;;;13.80;90.50;;;;;;6187030;23;20323;-68
2021/05/15 07:34:48;;;;;;;40.05;32.20;;;13.80;90.10;;;;;;6212450;23;20000;-69
2021/05/15 07:37:14;;;;;;;42.55;33.60;;;13.80;89.90;;;;;;6211634;23;20001;-68
2021/05/15 07:39:40;;;;;;;43.42;33.67;;;13.90;89.90;;;;;;6213362;23;20071;-67
2021/05/15 07:42:07;;;;;;;36.95;30.75;;;13.90;89.20;;;;;;6212528;23;20008;-68
2021/05/15 07:44:33;;;;;;;40.17;32.33;;;14.00;89.70;;;;;;6212769;23;20459;-68
2021/05/15 07:46:58;;;;;;;39.85;30.65;;;14.10;88.70;;;;;;6213149;23;20322;-68
2021/05/15 07:49:24;;;;;;;37.53;29.80;;;14.10;87.70;;;;;;6212468;23;20012;-68
2021/05/15 07:51:52;;;;;;;35.42;29.80;;;14.10;87.90;;;;;;6213313;23;20012;-69
2021/05/15 07:54:19;;;;;;;38.47;30.23;;;14.30;88.00;;;;;;6212617;23;20011;-67
2021/05/15 07:56:44;;;;;;;42.67;31.10;;;14.40;86.60;;;;;;6211464;23;20055;-68
2021/05/15 07:59:10;;;;;;;38.40;29.17;;;14.40;86.60;;;;;;6213002;23;20418;-67
2021/05/15 08:01:35;;;;;;;36.97;29.08;;;14.40;86.00;;;;;;6212711;23;20410;-68
2021/05/15 08:04:01;;;;;;;35.38;29.90;;;14.40;85.60;;;;;;6214927;23;20008;-68
2021/05/15 08:06:26;;;;;;;31.35;27.13;;;14.40;85.20;;;;;;6215335;23;20007;-68
2021/05/15 08:08:52;;;;;;;33.35;26.80;;;14.50;85.10;;;;;;6212526;23;20028;-67
2021/05/15 08:11:18;;;;;;;33.80;28.85;;;14.40;84.90;;;;;;6215132;23;20096;-68
2021/05/15 08:13:45;;;;;;;35.05;28.23;;;14.20;84.20;;;;;;6214771;23;20378;-68
2021/05/15 08:16:12;;;;;;;32.08;26.92;;;14.10;84.80;;;;;;6212545;23;20054;-69
2021/05/15 08:18:39;;;;;;;31.13;26.88;;;14.00;85.10;;;;;;6214934;23;20007;-68
2021/05/15 08:21:05;;;;;;;36.60;28.13;;;14.00;85.20;;;;;;6214835;23;20330;-68
2021/05/15 08:23:35;;;;;;;32.00;26.90;;;14.00;85.70;;;;;;6212447;23;20015;-67
2021/05/15 08:26:04;;;;;;;28.88;24.67;;;14.00;85.70;;;;;;6214894;23;20076;-68
2021/05/15 08:28:33;;;;;;;32.00;25.83;;;13.90;85.80;;;;;;6214935;23;20004;-68
2021/05/15 08:30:59;;;;;;;35.28;28.50;;;13.90;85.30;;;;;;6212560;23;20055;-69
2021/05/15 08:33:25;;;;;;;33.13;27.70;;;13.80;85.00;;;;;;6215190;23;20001;-68
2021/05/15 08:35:50;;;;;;;33.38;26.92;;;13.80;85.60;;;;;;6213248;23;20052;-69
2021/05/15 08:38:16;;;;;;;35.65;29.63;;;14.00;85.50;;;;;;6213700;23;20011;-67
2021/05/15 08:40:42;;;;;;;30.20;26.77;;;14.20;85.50;;;;;;6214938;23;20028;-67
2021/05/15 08:43:09;;;;;;;33.53;27.60;;;14.60;84.30;;;;;;6212813;23;20032;-68
2021/05/15 08:45:35;;;;;;;32.33;26.88;;;14.90;83.20;;;;;;6213864;23;20005;-68
2021/05/15 08:48:02;;;;;;;31.80;26.83;;;15.20;82.90;;;;;;6212754;23;20005;-68
2021/05/15 08:50:29;;;;;;;31.27;26.48;;;15.30;80.30;;;;;;6213940;23;19996;-67
2021/05/15 08:52:56;;;;;;;31.08;26.95;;;15.60;81.10;;;;;;6214134;23;20004;-68
2021/05/15 08:55:28;;;;;;;28.48;25.38;;;15.90;79.50;;;;;;6214737;23;20004;-69
2021/05/15 08:57:54;;;;;;;27.77;24.77;;;15.90;78.70;;;;;;6213670;23;20001;-68
2021/05/15 09:00:24;;;;;;;26.88;23.10;;;16.00;79.00;;;;;;6214757;23;20324;-70
2021/05/15 09:02:52;;;;;;;28.15;22.17;;;16.30;77.50;;;;;;6214468;23;20009;-68
2021/05/15 09:05:20;;;;;;;23.73;20.67;;;16.40;76.60;;;;;;6213559;23;20754;-70
2021/05/15 09:07:55;;;;;;;26.35;21.17;;;16.30;75.30;;;;;;6214527;23;20087;-69
2021/05/15 09:10:25;;;;;;;28.30;23.73;;;16.20;75.30;;;;;;6212927;23;20004;-68
2021/05/15 09:12:52;;;;;;;31.95;24.95;;;16.00;76.20;;;;;;6213390;23;20333;-68
2021/05/15 09:15:18;;;;;;;28.33;24.08;;;15.90;76.80;;;;;;6214411;23;20004;-68
2021/05/15 09:17:49;;;;;;;25.75;22.92;;;15.70;76.30;;;;;;6214258;23;20009;-68
2021/05/15 09:20:28;;;;;;;25.40;22.70;;;15.50;76.50;;;;;;6214013;23;20487;-68
2021/05/15 09:22:54;;;;;;;29.30;22.90;;;15.30;77.10;;;;;;6212856;23;20373;-68
2021/05/15 09:25:20;;;;;;;28.08;21.35;;;15.20;77.80;;;;;;6214713;23;20035;-67
2021/05/15 09:27:46;;;;;;;24.35;20.63;;;15.10;77.30;;;;;;6213680;23;20025;-67
2021/05/15 09:30:12;;;;;;;25.10;20.17;;;15.20;78.40;;;;;;6214780;23;19996;-68
2021/05/15 09:32:39;;;;;;;23.73;19.20;;;15.20;77.90;;;;;;6214420;23;20013;-68
2021/05/15 09:35:07;;;;;;;24.95;21.05;;;15.00;78.00;;;;;;6213066;23;20008;-68
2021/05/15 09:37:41;;;;;;;24.45;21.45;;;15.00;78.00;;;;;;6212525;23;20030;-67
2021/05/15 09:40:16;;;;;;;25.90;22.50;;;15.10;77.90;;;;;;6213431;23;20000;-68
2021/05/15 09:42:50;;;;;;;22.90;20.45;;;15.10;77.30;;;;;;6213761;23;20377;-68
2021/05/15 09:45:37;;;;;;;24.55;20.63;;;15.20;77.70;;;;;;6214009;23;20329;-68
2021/05/15 09:48:34;;;;;;;24.70;20.73;;;15.30;76.90;;;;;;6213413;23;20005;-67
2021/05/15 09:51:17;;;;;;;25.20;20.65;;;15.40;76.70;;;;;;6213775;23;20024;-69
2021/05/15 09:53:44;;;;;;;25.80;22.08;;;15.60;76.20;;;;;;6212262;23;20425;-67
2021/05/15 09:56:10;;;;;;;25.75;21.70;;;15.70;75.90;;;;;;6213456;23;20389;-67
2021/05/15 09:58:36;;;;;;;28.98;22.55;;;15.90;75.80;;;;;;6214348;23;20013;-67
2021/05/15 10:01:03;;;;;;;25.38;21.15;;;16.00;75.90;;;;;;6213075;23;20008;-67
2021/05/15 10:03:31;;;;;;;23.77;20.88;;;16.10;75.70;;;;;;6214101;23;20015;-68
2021/05/15 10:06:13;;;;;;;24.23;20.42;;;16.10;75.60;;;;;;6214447;23;19996;-67
2021/05/15 10:08:43;;;;;;;22.60;20.20;;;16.00;74.00;;;;;;6213549;23;20004;-68
2021/05/15 10:11:09;;;;;;;21.88;19.58;;;15.90;74.10;;;;;;6213915;23;20000;-68
2021/05/15 10:13:36;;;;;;;23.58;18.98;;;15.90;74.50;;;;;;6213645;23;20011;-68
2021/05/15 10:16:03;;;;;;;20.80;18.60;;;15.80;74.50;;;;;;6213167;23;20449;-67
2021/05/15 10:18:31;;;;;;;20.15;17.92;;;15.80;74.60;;;;;;6213842;23;20000;-69
2021/05/15 10:20:58;;;;;;;20.90;17.27;;;15.70;74.80;;;;;;6214125;23;20408;-68
2021/05/15 10:23:29;;;;;;;25.25;19.70;;;15.80;75.50;;;;;;6213148;23;20058;-67
2021/05/15 10:26:09;;;;;;;25.38;20.58;;;15.90;73.80;;;;;;6213126;23;20007;-67
2021/05/15 10:28:37;;;;;;;24.52;20.33;;;15.90;73.70;;;;;;6213423;23;20392;-66
2021/05/15 10:31:14;;;;;;;22.08;19.73;;;15.90;73.40;;;;;;6211168;23;20464;-67
2021/05/15 10:33:42;;;;;;;22.60;19.65;;;15.90;73.60;;;;;;6213643;23;20351;-66
2021/05/15 10:36:23;;;;;;;21.98;19.65;;;15.80;74.10;;;;;;6212683;23;20001;-67
2021/05/15 10:38:51;;;;;;;23.20;19.73;;;15.70;74.00;;;;;;6213342;23;20299;-66
2021/05/15 10:41:19;;;;;;;23.45;18.80;;;15.70;74.50;;;;;;6210034;23;20004;-70
2021/05/15 10:43:48;;;;;;;24.30;18.15;;;15.80;74.70;;;;;;6211647;23;20047;-72
2021/05/15 10:46:26;;;;;;;19.00;17.00;;;16.00;74.50;;;;;;6211206;23;20003;-69
2021/05/15 10:49:04;;;;;;;21.80;17.50;;;16.30;74.40;;;;;;6211307;23;20028;-70
2021/05/15 10:51:37;;;;;;;18.85;15.93;;;16.60;72.40;;;;;;6210418;23;20019;-68
2021/05/15 10:54:04;;;;;;;17.88;15.98;;;16.80;72.30;;;;;;6213128;23;20132;-69
2021/05/15 10:56:31;;;;;;;20.65;17.38;;;16.90;71.60;;;;;;6212881;23;20080;-67
2021/05/15 10:59:21;;;;;;;21.77;17.10;;;17.00;72.30;;;;;;6212727;23;20075;-68
2021/05/15 11:01:55;;;;;;;19.17;16.48;;;17.20;72.30;;;;;;6200878;23;20013;-68
2021/05/15 11:04:23;;;;;;;20.98;16.88;;;17.20;71.30;;;;;;6210584;23;20001;-69
2021/05/15 11:07:15;;;;;;;22.77;17.75;;;17.40;69.80;;;;;;6212873;23;20001;-68
2021/05/15 11:09:53;;;;;;;24.27;15.93;;;17.50;68.30;;;;;;6208933;23;20011;-68
2021/05/15 11:12:19;;;;;;;17.27;14.80;;;17.60;69.40;;;;;;6211354;23;20015;-68
2021/05/15 11:14:47;;;;;;;16.73;14.98;;;17.60;69.60;;;;;;6212567;23;20008;-70
2021/05/15 11:17:22;;;;;;;17.73;15.88;;;17.80;68.70;;;;;;6211007;23;20416;-70
2021/05/15 11:20:09;;;;;;;17.98;14.23;;;17.80;67.10;;;;;;6211197;23;20004;-69
2021/05/15 11:22:39;;;;;;;16.58;14.30;;;17.80;66.90;;;;;;6210937;23;20008;-70
2021/05/15 11:25:14;;;;;;;16.98;15.13;;;17.80;66.30;;;;;;6212470;23;20087;-71
2021/05/15 11:27:59;;;;;;;18.40;16.20;;;17.90;67.30;;;;;;6212688;23;20035;-70
2021/05/15 11:30:30;;;;;;;19.15;16.05;;;18.10;67.20;;;;;;6212514;23;20007;-70
2021/05/15 11:33:11;;;;;;;19.13;15.98;;;18.30;66.20;;;;;;6211958;23;19997;-69
2021/05/15 11:35:44;;;;;;;19.70;16.70;;;18.30;66.00;;;;;;6213240;23;20009;-70
2021/05/15 11:38:21;;;;;;;18.75;16.02;;;18.30;65.10;;;;;;6213167;23;20035;-69
2021/05/15 11:40:46;;;;;;;17.88;14.68;;;18.40;65.00;;;;;;6214322;23;20483;-69
2021/05/15 11:43:24;;;;;;;17.13;15.07;;;18.60;65.50;;;;;;6213161;23;20258;-69
2021/05/15 11:45:51;;;;;;;16.73;13.85;;;18.90;66.80;;;;;;6213439;23;20005;-69
2021/05/15 11:48:22;;;;;;;19.40;15.43;;;19.10;66.80;;;;;;6213780;23;20055;-69
2021/05/15 11:51:00;;;;;;;;;;;19.40;65.50;;;;;;6215622;23;20017;-69
2021/05/15 11:53:27;;;;;;;18.77;14.93;;;19.50;64.70;;;;;;6214451;23;19903;-68
2021/05/15 11:55:53;;;;;;;18.45;15.05;;;19.60;65.00;;;;;;6214758;23;20430;-69
2021/05/15 11:58:19;;;;;;;18.83;16.25;;;19.50;64.90;;;;;;6215231;23;20080;-69
2021/05/15 12:00:45;;;;;;;19.52;15.48;;;19.30;64.00;;;;;;6214192;23;20444;-69
2021/05/15 12:03:12;;;;;;;22.17;15.93;;;18.90;65.10;;;;;;6215054;23;20008;-69
2021/05/15 12:05:38;;;;;;;18.35;15.15;;;18.50;65.70;;;;;;6215199;23;20000;-69
2021/05/15 12:08:12;;;;;;;18.90;12.68;;;18.10;66.90;;;;;;6212571;23;20448;-70
2021/05/15 12:10:40;;;;;;;10.82;6.38;;;17.40;71.70;;;;;;6213730;23;20008;-70
2021/05/15 12:13:06;;;;;;;11.55;5.72;;;16.40;74.40;;;;;;6214824;23;20055;-69
2021/05/15 12:15:32;;;;;;;8.27;5.38;;;15.70;77.50;;;;;;6214134;23;20017;-69
2021/05/15 12:18:00;;;;;;;9.25;5.00;;;14.90;79.80;;;;;;6214781;23;19996;-70
2021/05/15 12:20:31;;;;;;;6.57;4.30;;;14.20;81.80;;;;;;6213733;23;20433;-69
2021/05/15 12:23:10;;;;;;;6.32;3.60;;;13.70;84.10;;;;;;6214263;23;20018;-70
2021/05/15 12:25:37;;;;;;;4.00;3.17;;;13.30;86.50;;;;;;6215079;23;20000;-70
2021/05/15 12:28:04;;;;;;;5.75;3.08;;;13.20;87.50;;;;;;6214835;23;20032;-70
2021/05/15 12:30:30;;;;;;;6.65;3.38;;;13.20;88.30;;;;;;6214267;23;20395;-70